Time;durP1;ratioP1;P1;durP2;ratioP2;P2;SDS_P1;SDS_P2;PMS_P1;PMS_P2;Temp;Humidity;BMP_temperature;BMP_pressure;BME280_temperature;BME280_humidity;BME280_pressure;Samples;Min_cycle;Max_cycle;Signal;HPM_P1;HPM_P2
2022/05/29 00:01:47;;;;;;;2.15;1.02;;;;;;;;;;7385203;19;20013;-77
2022/05/29 00:04:13;;;;;;;5.65;0.80;;;;;;;;;;7388360;19;20007;-76
2022/05/29 00:06:41;;;;;;;2.50;1.17;;;;;;;;;;7385759;19;20058;-77
2022/05/29 00:09:07;;;;;;;2.15;1.05;;;;;;;;;;7388741;19;20074;-77
2022/05/29 00:11:32;;;;;;;5.65;0.82;;;;;;;;;;7386945;19;20010;-77
2022/05/29 00:14:00;;;;;;;1.20;0.70;;;;;;;;;;7386004;19;20018;-77
2022/05/29 00:16:27;;;;;;;1.52;0.75;;;;;;;;;;7384111;19;20436;-77
2022/05/29 00:18:52;;;;;;;4.90;0.90;;;;;;;;;;7386550;19;20018;-76
2022/05/29 00:21:17;;;;;;;0.73;0.65;;;;;;;;;;7384903;19;20002;-76
2022/05/29 00:23:43;;;;;;;2.58;1.25;;;;;;;;;;7387429;19;20343;-77
2022/05/29 00:26:09;;;;;;;2.05;0.73;;;;;;;;;;7384502;19;20136;-76
2022/05/29 00:28:34;;;;;;;1.67;0.80;;;;;;;;;;7385901;19;20016;-76
2022/05/29 00:30:59;;;;;;;2.05;1.00;;;;;;;;;;7384427;19;20014;-76
2022/05/29 00:33:25;;;;;;;1.27;0.90;;;;;;;;;;7384377;19;20472;-76
2022/05/29 00:35:52;;;;;;;1.92;0.70;;;;;;;;;;7384664;19;20026;-76
2022/05/29 00:38:18;;;;;;;3.40;0.75;;;;;;;;;;7387099;19;20018;-77
2022/05/29 00:41:08;;;;;;;0.90;0.77;;;;;;;;;;7386597;19;20107;-76
2022/05/29 00:43:34;;;;;;;2.15;0.80;;;;;;;;;;7386894;19;20451;-76
2022/05/29 00:46:02;;;;;;;2.08;0.80;;;;;;;;;;7383429;19;20010;-76
2022/05/29 00:48:28;;;;;;;2.25;0.80;;;;;;;;;;7388226;19;20018;-77
2022/05/29 00:50:57;;;;;;;1.98;0.90;;;;;;;;;;7381995;19;20086;-77
2022/05/29 00:53:23;;;;;;;3.00;0.80;;;;;;;;;;7383648;19;20015;-76
2022/05/29 00:55:53;;;;;;;1.15;0.57;;;;;;;;;;7381241;19;20035;-76
2022/05/29 00:58:21;;;;;;;0.70;0.65;;;;;;;;;;7387037;19;20036;-76
2022/05/29 01:00:47;;;;;;;3.53;0.65;;;;;;;;;;7386876;19;20015;-76
2022/05/29 01:03:13;;;;;;;1.48;0.80;;;;;;;;;;7386309;19;20499;-77
2022/05/29 01:05:39;;;;;;;2.08;0.73;;;;;;;;;;7385288;19;20003;-76
2022/05/29 01:08:04;;;;;;;3.75;1.02;;;;;;;;;;7380611;19;20006;-77
2022/05/29 01:10:48;;;;;;;1.05;0.82;;;;;;;;;;7386496;19;20014;-77
2022/05/29 01:13:36;;;;;;;1.42;0.80;;;;;;;;;;7383870;19;20010;-76
2022/05/29 01:16:17;;;;;;;1.42;0.55;;;;;;;;;;7383723;19;20095;-78
2022/05/29 01:19:23;;;;;;;2.10;0.90;;;;;;;;;;7385610;19;20573;-77
2022/05/29 01:22:13;;;;;;;0.80;0.55;;;;;;;;;;7385546;19;20014;-77
2022/05/29 01:24:56;;;;;;;1.25;0.60;;;;;;;;;;7385906;19;20082;-78
2022/05/29 01:27:38;;;;;;;3.08;0.80;;;;;;;;;;7382847;19;20468;-78
2022/05/29 01:30:06;;;;;;;1.33;0.70;;;;;;;;;;7384486;19;20006;-77
2022/05/29 01:32:43;;;;;;;1.33;0.70;;;;;;;;;;7388306;19;20017;-77
2022/05/29 01:35:24;;;;;;;1.95;0.75;;;;;;;;;;7391872;19;20345;-77
2022/05/29 01:38:00;;;;;;;2.47;0.50;;;;;;;;;;7392119;19;20126;-78
2022/05/29 01:40:37;;;;;;;3.22;0.75;;;;;;;;;;7389047;19;21004;-77
2022/05/29 01:43:10;;;;;;;1.40;0.60;;;;;;;;;;7392046;19;20011;-78
2022/05/29 01:45:55;;;;;;;2.22;0.82;;;;;;;;;;7390957;19;20029;-77
2022/05/29 01:48:29;;;;;;;1.92;1.10;;;;;;;;;;7393061;19;20041;-77
2022/05/29 01:51:01;;;;;;;1.13;0.75;;;;;;;;;;7390918;19;20519;-77
2022/05/29 01:53:35;;;;;;;1.83;0.70;;;;;;;;;;7388936;19;20022;-77
2022/05/29 01:56:10;;;;;;;1.58;0.57;;;;;;;;;;7388456;19;20077;-77
2022/05/29 01:58:41;;;;;;;1.05;0.80;;;;;;;;;;7390808;19;20539;-77
2022/05/29 02:01:09;;;;;;;1.27;0.88;;;;;;;;;;7392031;19;20017;-77
2022/05/29 02:03:40;;;;;;;1.73;0.88;;;;;;;;;;7391138;19;21726;-78
2022/05/29 02:06:10;;;;;;;1.20;0.80;;;;;;;;;;7387796;19;20073;-77
2022/05/29 02:08:39;;;;;;;1.95;0.90;;;;;;;;;;7390498;19;20014;-77
2022/05/29 02:11:12;;;;;;;0.88;0.73;;;;;;;;;;7389912;19;20018;-76
2022/05/29 02:13:53;;;;;;;1.35;0.80;;;;;;;;;;7390973;19;20042;-77
2022/05/29 02:16:20;;;;;;;1.23;0.70;;;;;;;;;;7385749;19;20073;-76
2022/05/29 02:19:01;;;;;;;1.20;0.70;;;;;;;;;;7388930;19;20007;-76
2022/05/29 02:21:52;;;;;;;0.95;0.70;;;;;;;;;;7390340;19;20010;-76
2022/05/29 02:24:22;;;;;;;0.93;0.52;;;;;;;;;;7388290;19;20662;-78
2022/05/29 02:26:57;;;;;;;1.95;0.60;;;;;;;;;;7387204;19;20605;-78
2022/05/29 02:29:22;;;;;;;2.88;0.77;;;;;;;;;;7388753;19;20006;-77
2022/05/29 02:32:00;;;;;;;0.77;0.70;;;;;;;;;;7387087;19;20475;-78
2022/05/29 02:34:56;;;;;;;1.98;0.38;;;;;;;;;;7390834;19;20011;-78
2022/05/29 02:37:21;;;;;;;2.45;0.93;;;;;;;;;;7389819;19;20014;-78
2022/05/29 02:39:55;;;;;;;1.00;0.75;;;;;;;;;;7391134;19;20010;-77
2022/05/29 02:42:28;;;;;;;1.45;0.70;;;;;;;;;;7385357;19;20113;-78
2022/05/29 02:45:29;;;;;;;0.90;0.80;;;;;;;;;;7387552;19;20010;-78
2022/05/29 02:48:04;;;;;;;1.65;0.68;;;;;;;;;;7386064;19;20114;-78
2022/05/29 02:50:36;;;;;;;0.88;0.80;;;;;;;;;;7391538;19;20014;-78
2022/05/29 02:53:08;;;;;;;1.67;1.13;;;;;;;;;;7390885;19;20014;-78
2022/05/29 02:55:34;;;;;;;2.95;0.65;;;;;;;;;;7388692;19;20015;-78
2022/05/29 02:58:03;;;;;;;1.30;0.80;;;;;;;;;;7385373;19;20476;-78
2022/05/29 03:00:37;;;;;;;1.33;0.65;;;;;;;;;;7388563;19;20379;-78
2022/05/29 03:03:09;;;;;;;1.75;0.95;;;;;;;;;;7390505;19;20519;-78
2022/05/29 03:05:37;;;;;;;1.35;0.90;;;;;;;;;;7390404;19;20366;-78
2022/05/29 03:08:11;;;;;;;1.15;1.00;;;;;;;;;;7391514;19;20399;-78
2022/05/29 03:10:40;;;;;;;1.75;0.98;;;;;;;;;;7395850;19;20003;-78
2022/05/29 03:13:08;;;;;;;1.17;0.80;;;;;;;;;;7396762;19;20014;-78
2022/05/29 03:15:55;;;;;;;1.27;0.88;;;;;;;;;;7398262;19;20014;-78
2022/05/29 03:18:39;;;;;;;1.73;0.80;;;;;;;;;;7395282;19;20050;-78
2022/05/29 03:21:14;;;;;;;0.93;0.60;;;;;;;;;;7390207;19;20010;-78
2022/05/29 03:23:50;;;;;;;1.85;0.77;;;;;;;;;;7389095;19;20014;-75
2022/05/29 03:26:44;;;;;;;0.98;0.88;;;;;;;;;;7385915;19;20531;-75
2022/05/29 03:29:20;;;;;;;1.10;0.50;;;;;;;;;;7385372;19;20007;-77
2022/05/29 03:31:46;;;;;;;1.90;0.90;;;;;;;;;;7384590;19;20026;-76
2022/05/29 03:34:13;;;;;;;1.08;0.90;;;;;;;;;;7389490;19;20003;-77
2022/05/29 03:36:47;;;;;;;0.60;0.50;;;;;;;;;;7387059;19;20590;-76
2022/05/29 03:39:13;;;;;;;0.82;0.60;;;;;;;;;;7387920;19;20006;-76
2022/05/29 03:41:44;;;;;;;0.85;0.65;;;;;;;;;;7390462;19;20010;-77
2022/05/29 03:44:14;;;;;;;1.90;0.80;;;;;;;;;;7392667;19;20329;-76
2022/05/29 03:46:39;;;;;;;0.90;0.60;;;;;;;;;;7388382;19;20468;-76
2022/05/29 03:49:09;;;;;;;1.27;0.68;;;;;;;;;;7392436;19;20019;-77
2022/05/29 03:51:35;;;;;;;1.95;0.75;;;;;;;;;;7388106;19;20499;-76
2022/05/29 03:54:01;;;;;;;1.08;0.57;;;;;;;;;;7384526;19;20006;-76
2022/05/29 03:56:26;;;;;;;0.50;0.50;;;;;;;;;;7384436;19;20131;-76
2022/05/29 03:58:52;;;;;;;1.48;0.70;;;;;;;;;;7384124;19;20002;-76
2022/05/29 04:01:17;;;;;;;2.80;0.77;;;;;;;;;;7384898;19;20041;-77
2022/05/29 04:03:42;;;;;;;1.20;0.73;;;;;;;;;;7386601;19;20002;-76
2022/05/29 04:06:08;;;;;;;1.35;0.90;;;;;;;;;;7381197;19;20027;-77
2022/05/29 04:14:02;;;;;;;4.00;0.70;;;;;;;;;;7387309;19;20104;-76
2022/05/29 04:16:28;;;;;;;2.35;0.85;;;;;;;;;;7381176;19;20555;-77
2022/05/29 04:18:53;;;;;;;3.22;0.75;;;;;;;;;;7388850;19;20031;-76
2022/05/29 04:21:19;;;;;;;1.95;0.70;;;;;;;;;;7384412;19;20010;-78
2022/05/29 04:23:44;;;;;;;2.92;0.70;;;;;;;;;;7387515;19;20023;-78
2022/05/29 04:26:13;;;;;;;1.55;0.80;;;;;;;;;;7383588;19;20011;-76
2022/05/29 04:28:38;;;;;;;1.33;0.88;;;;;;;;;;7388703;19;20011;-77
2022/05/29 04:31:03;;;;;;;0.52;0.52;;;;;;;;;;7378601;19;20231;-77
2022/05/29 04:33:29;;;;;;;1.23;0.70;;;;;;;;;;7386357;19;20006;-78
2022/05/29 04:35:55;;;;;;;1.80;0.95;;;;;;;;;;7383866;19;20018;-77
2022/05/29 04:38:23;;;;;;;1.13;1.00;;;;;;;;;;7384396;19;20344;-78
2022/05/29 04:40:48;;;;;;;1.60;0.80;;;;;;;;;;7385888;19;20027;-78
2022/05/29 04:43:14;;;;;;;1.00;0.68;;;;;;;;;;7385428;19;20064;-77
2022/05/29 04:45:43;;;;;;;2.30;1.00;;;;;;;;;;7386548;19;20014;-77
2022/05/29 04:48:09;;;;;;;1.33;1.13;;;;;;;;;;7384713;19;20011;-78
2022/05/29 04:50:35;;;;;;;1.83;0.93;;;;;;;;;;7389788;19;20006;-78
2022/05/29 04:53:01;;;;;;;3.38;1.45;;;;;;;;;;7374069;19;20409;-79
2022/05/29 04:55:26;;;;;;;2.47;1.15;;;;;;;;;;7387740;19;20060;-79
2022/05/29 04:57:51;;;;;;;1.13;0.95;;;;;;;;;;7386039;19;20034;-78
2022/05/29 05:00:17;;;;;;;1.63;1.10;;;;;;;;;;7389558;19;20011;-77
2022/05/29 05:02:42;;;;;;;4.13;1.05;;;;;;;;;;7377363;19;20007;-79
2022/05/29 05:05:09;;;;;;;1.70;0.90;;;;;;;;;;7378933;19;20014;-78
2022/05/29 05:07:35;;;;;;;3.13;0.77;;;;;;;;;;7385228;19;20019;-77
2022/05/29 05:10:02;;;;;;;3.90;1.08;;;;;;;;;;7391479;19;20450;-77
2022/05/29 05:12:27;;;;;;;1.50;0.73;;;;;;;;;;7391054;19;20002;-76
2022/05/29 05:14:52;;;;;;;1.52;0.82;;;;;;;;;;7390403;19;20011;-79
2022/05/29 05:17:17;;;;;;;2.75;0.90;;;;;;;;;;7389626;19;20007;-78
2022/05/29 05:19:43;;;;;;;1.42;0.80;;;;;;;;;;7397512;19;20003;-78
2022/05/29 05:22:08;;;;;;;2.75;0.93;;;;;;;;;;7398701;19;20390;-79
2022/05/29 05:24:34;;;;;;;2.13;0.70;;;;;;;;;;7398414;19;20126;-79
2022/05/29 05:27:00;;;;;;;1.77;0.80;;;;;;;;;;7390699;19;20014;-80
2022/05/29 05:29:26;;;;;;;2.72;1.10;;;;;;;;;;7398912;19;20007;-77
2022/05/29 05:31:51;;;;;;;1.10;0.90;;;;;;;;;;7396348;19;20014;-78
2022/05/29 05:34:16;;;;;;;3.00;1.13;;;;;;;;;;7398275;19;20014;-78
2022/05/29 05:36:42;;;;;;;3.80;1.10;;;;;;;;;;7393237;19;20015;-78
2022/05/29 05:39:07;;;;;;;1.02;0.98;;;;;;;;;;7401268;19;20014;-78
2022/05/29 05:41:32;;;;;;;2.58;1.10;;;;;;;;;;7402029;19;20014;-79
2022/05/29 05:43:58;;;;;;;4.95;2.83;;;;;;;;;;7393555;19;20506;-76
2022/05/29 05:46:23;;;;;;;3.78;1.02;;;;;;;;;;7394324;19;20003;-79
2022/05/29 05:48:48;;;;;;;1.23;1.10;;;;;;;;;;7396908;19;20412;-79
2022/05/29 05:51:14;;;;;;;3.00;1.05;;;;;;;;;;7393554;19;20009;-76
2022/05/29 05:53:40;;;;;;;2.17;0.82;;;;;;;;;;7399389;19;20464;-79
2022/05/29 05:56:08;;;;;;;0.95;0.70;;;;;;;;;;7391788;19;20013;-78
2022/05/29 05:58:33;;;;;;;3.15;1.30;;;;;;;;;;7392843;19;20002;-78
2022/05/29 06:01:03;;;;;;;2.80;1.02;;;;;;;;;;7389717;19;20013;-77
2022/05/29 06:03:29;;;;;;;1.52;0.90;;;;;;;;;;7391441;19;20374;-78
2022/05/29 06:05:54;;;;;;;1.58;0.90;;;;;;;;;;7393369;19;20007;-77
2022/05/29 06:08:19;;;;;;;2.42;1.00;;;;;;;;;;7393786;19;20010;-78
2022/05/29 06:10:44;;;;;;;1.27;1.00;;;;;;;;;;7394040;19;20104;-78
2022/05/29 06:13:10;;;;;;;2.85;1.13;;;;;;;;;;7390924;19;20011;-78
2022/05/29 06:15:35;;;;;;;3.05;1.23;;;;;;;;;;7391140;19;20064;-76
2022/05/29 06:18:00;;;;;;;2.40;1.58;;;;;;;;;;7389572;19;20021;-78
2022/05/29 06:20:26;;;;;;;1.58;0.95;;;;;;;;;;7391678;19;20054;-80
2022/05/29 06:22:51;;;;;;;2.78;1.02;;;;;;;;;;7388702;19;20006;-78
2022/05/29 06:25:17;;;;;;;4.82;0.98;;;;;;;;;;7388895;19;20013;-76
2022/05/29 06:27:44;;;;;;;1.73;0.90;;;;;;;;;;7390788;19;20016;-77
2022/05/29 06:30:13;;;;;;;2.15;0.75;;;;;;;;;;7391760;19;20595;-78
2022/05/29 06:32:39;;;;;;;1.20;0.90;;;;;;;;;;7392540;19;20039;-77
2022/05/29 06:35:08;;;;;;;7.22;1.13;;;;;;;;;;7388560;19;20007;-77
2022/05/29 06:37:33;;;;;;;4.25;1.77;;;;;;;;;;7382477;19;20015;-76
2022/05/29 06:39:59;;;;;;;2.03;1.27;;;;;;;;;;7387538;19;20008;-75
2022/05/29 06:42:25;;;;;;;1.63;1.08;;;;;;;;;;7389035;19;20018;-76
2022/05/29 06:44:50;;;;;;;3.92;1.08;;;;;;;;;;7392057;19;20007;-77
2022/05/29 06:47:17;;;;;;;0.70;0.70;;;;;;;;;;7382132;19;20006;-77
2022/05/29 06:49:42;;;;;;;1.85;0.80;;;;;;;;;;7389798;19;20010;-77
2022/05/29 06:52:09;;;;;;;2.03;1.13;;;;;;;;;;7388462;19;20011;-76
2022/05/29 06:54:35;;;;;;;2.83;1.00;;;;;;;;;;7388341;19;20101;-77
2022/05/29 06:57:01;;;;;;;1.50;0.70;;;;;;;;;;7384459;19;20014;-77
2022/05/29 06:59:27;;;;;;;0.80;0.80;;;;;;;;;;7391932;19;19994;-77
2022/05/29 07:07:22;;;;;;;2.33;0.70;;;;;;;;;;7392694;19;20023;-78
2022/05/29 07:09:48;;;;;;;2.92;0.90;;;;;;;;;;7391476;19;20456;-77
2022/05/29 07:12:19;;;;;;;2.97;0.80;;;;;;;;;;7392693;19;20035;-77
2022/05/29 07:14:50;;;;;;;2.45;1.00;;;;;;;;;;7390587;19;20017;-78
2022/05/29 07:17:15;;;;;;;2.13;0.95;;;;;;;;;;7386327;19;20014;-77
2022/05/29 07:19:41;;;;;;;1.77;0.80;;;;;;;;;;7390864;19;20002;-77
2022/05/29 07:22:07;;;;;;;1.08;0.90;;;;;;;;;;7392211;19;20015;-77
2022/05/29 07:24:34;;;;;;;2.65;1.05;;;;;;;;;;7394673;19;19999;-78
2022/05/29 07:27:00;;;;;;;1.48;0.60;;;;;;;;;;7394568;19;20030;-79
2022/05/29 07:29:25;;;;;;;2.75;1.63;;;;;;;;;;7394013;19;20009;-77
2022/05/29 07:31:52;;;;;;;4.00;2.05;;;;;;;;;;7391352;19;20023;-77
2022/05/29 07:34:18;;;;;;;7.47;2.55;;;;;;;;;;7393325;19;19998;-77
2022/05/29 07:36:44;;;;;;;2.05;1.30;;;;;;;;;;7389420;19;20015;-77
2022/05/29 07:39:10;;;;;;;1.58;0.70;;;;;;;;;;7393094;19;20022;-78
2022/05/29 07:44:21;;;;;;;;;;;;;;;;;;7392158;19;20041;-78
2022/05/29 07:46:46;;;;;;;2.23;0.90;;;;;;;;;;7389622;19;19911;-77
2022/05/29 07:49:11;;;;;;;2.15;0.88;;;;;;;;;;7390815;19;20740;-78
2022/05/29 07:51:37;;;;;;;1.83;0.70;;;;;;;;;;7390596;19;20029;-78
2022/05/29 07:54:02;;;;;;;1.33;0.75;;;;;;;;;;7390933;19;20042;-76
2022/05/29 07:56:28;;;;;;;2.20;0.80;;;;;;;;;;7389962;19;20007;-77
2022/05/29 07:58:53;;;;;;;0.77;0.63;;;;;;;;;;7389791;19;19999;-77
2022/05/29 08:01:19;;;;;;;3.63;0.50;;;;;;;;;;7390719;19;20010;-77
2022/05/29 08:03:44;;;;;;;2.40;1.00;;;;;;;;;;7389014;19;20374;-77
2022/05/29 08:06:10;;;;;;;2.38;0.98;;;;;;;;;;7390899;19;20463;-77
2022/05/29 08:08:36;;;;;;;1.85;0.82;;;;;;;;;;7391966;19;20034;-75
2022/05/29 08:11:01;;;;;;;3.22;1.00;;;;;;;;;;7391313;19;20015;-78
2022/05/29 08:13:28;;;;;;;1.02;0.70;;;;;;;;;;7388693;19;20436;-76
2022/05/29 08:15:53;;;;;;;3.47;0.63;;;;;;;;;;7391528;19;20006;-78
2022/05/29 08:18:18;;;;;;;2.75;0.68;;;;;;;;;;7389321;19;20007;-78
2022/05/29 08:20:44;;;;;;;2.00;0.63;;;;;;;;;;7391408;19;20005;-78
2022/05/29 08:23:09;;;;;;;5.47;0.80;;;;;;;;;;7391127;19;20006;-78
2022/05/29 08:31:03;;;;;;;1.38;0.77;;;;;;;;;;7390968;19;20034;-78
2022/05/29 08:33:31;;;;;;;6.03;1.05;;;;;;;;;;7388684;19;20014;-76
2022/05/29 08:36:02;;;;;;;1.60;0.80;;;;;;;;;;7390886;19;20459;-78
2022/05/29 08:38:29;;;;;;;0.82;0.50;;;;;;;;;;7392410;19;20005;-77
2022/05/29 08:41:02;;;;;;;1.13;0.60;;;;;;;;;;7392472;19;20063;-76
2022/05/29 08:43:40;;;;;;;1.42;0.90;;;;;;;;;;7396204;19;20361;-79
2022/05/29 08:46:15;;;;;;;1.70;0.73;;;;;;;;;;7397930;19;20019;-76
2022/05/29 08:48:40;;;;;;;1.67;0.75;;;;;;;;;;7397870;19;20359;-78
2022/05/29 08:51:11;;;;;;;1.63;0.90;;;;;;;;;;7400128;19;20015;-79
2022/05/29 08:53:50;;;;;;;2.08;0.70;;;;;;;;;;7398981;19;20006;-79
2022/05/29 08:56:29;;;;;;;1.30;0.80;;;;;;;;;;7396801;19;20010;-77
2022/05/29 08:59:31;;;;;;;2.67;0.70;;;;;;;;;;7400741;19;20050;-76
2022/05/29 09:02:07;;;;;;;2.33;0.80;;;;;;;;;;7397185;19;20352;-78
2022/05/29 09:04:40;;;;;;;2.30;1.05;;;;;;;;;;7399276;19;19998;-77
2022/05/29 09:07:08;;;;;;;2.47;0.90;;;;;;;;;;7394717;19;20050;-76
2022/05/29 09:09:48;;;;;;;2.45;0.90;;;;;;;;;;7397277;19;20372;-77
2022/05/29 09:12:30;;;;;;;2.65;0.70;;;;;;;;;;7400231;19;20089;-79
2022/05/29 09:15:06;;;;;;;2.45;0.73;;;;;;;;;;7396578;19;20017;-77
2022/05/29 09:17:43;;;;;;;4.47;0.80;;;;;;;;;;7394277;19;20326;-77
2022/05/29 09:20:20;;;;;;;1.92;0.85;;;;;;;;;;7396997;19;20380;-78
2022/05/29 09:22:45;;;;;;;3.97;1.10;;;;;;;;;;7394456;19;20030;-76
2022/05/29 09:25:29;;;;;;;0.93;0.68;;;;;;;;;;7393175;19;20017;-77
2022/05/29 09:27:54;;;;;;;3.75;0.80;;;;;;;;;;7394957;19;20034;-77
2022/05/29 09:30:20;;;;;;;3.33;0.80;;;;;;;;;;7392167;19;20030;-76
2022/05/29 09:33:02;;;;;;;1.65;0.75;;;;;;;;;;7391459;19;20011;-77
2022/05/29 09:35:40;;;;;;;2.15;0.77;;;;;;;;;;7390225;19;20018;-76
2022/05/29 09:38:14;;;;;;;4.90;0.75;;;;;;;;;;7384128;19;20014;-77
2022/05/29 09:40:54;;;;;;;2.40;0.93;;;;;;;;;;7393666;19;20011;-77
2022/05/29 09:43:24;;;;;;;2.15;0.93;;;;;;;;;;7387813;19;20018;-75
2022/05/29 09:45:51;;;;;;;0.52;0.45;;;;;;;;;;7386591;19;20018;-76
2022/05/29 09:51:30;;;;;;;3.15;1.33;;;;;;;;;;7393402;19;20491;-76
2022/05/29 09:54:02;;;;;;;2.80;0.90;;;;;;;;;;7385695;19;20320;-76
2022/05/29 09:56:31;;;;;;;1.73;0.68;;;;;;;;;;7388818;19;20038;-78
2022/05/29 09:59:04;;;;;;;2.92;0.73;;;;;;;;;;7392578;19;20014;-76
2022/05/29 10:01:36;;;;;;;4.32;0.90;;;;;;;;;;7396931;19;20028;-77
2022/05/29 10:04:04;;;;;;;1.95;0.85;;;;;;;;;;7418581;19;20011;-76
2022/05/29 10:06:33;;;;;;;1.85;0.75;;;;;;;;;;7399976;19;20034;-78
2022/05/29 10:09:13;;;;;;;1.40;0.60;;;;;;;;;;7399908;19;20003;-78
2022/05/29 10:11:40;;;;;;;1.55;0.90;;;;;;;;;;7397916;19;20078;-75
2022/05/29 10:14:36;;;;;;;1.90;0.88;;;;;;;;;;7397762;19;20127;-78
2022/05/29 10:17:11;;;;;;;4.93;0.90;;;;;;;;;;7383502;19;20110;-78
2022/05/29 10:19:45;;;;;;;0.55;0.50;;;;;;;;;;7400494;19;20043;-77
2022/05/29 10:22:24;;;;;;;1.48;0.70;;;;;;;;;;7396582;19;20002;-74
2022/05/29 10:24:50;;;;;;;1.00;0.57;;;;;;;;;;7385582;19;20567;-76
2022/05/29 10:27:19;;;;;;;1.85;0.80;;;;;;;;;;7403837;19;20011;-78
2022/05/29 10:29:50;;;;;;;4.15;0.50;;;;;;;;;;7403249;19;20006;-78
2022/05/29 10:32:26;;;;;;;2.03;0.70;;;;;;;;;;7398375;19;20015;-77
2022/05/29 10:35:04;;;;;;;2.53;0.93;;;;;;;;;;7400727;19;20023;-77
2022/05/29 10:37:37;;;;;;;1.55;0.65;;;;;;;;;;7396249;19;20456;-78
2022/05/29 10:40:22;;;;;;;3.67;1.33;;;;;;;;;;7398332;19;20551;-78
2022/05/29 10:42:53;;;;;;;0.73;0.70;;;;;;;;;;7397822;19;20018;-78
2022/05/29 10:45:20;;;;;;;1.63;0.88;;;;;;;;;;7397702;19;20605;-77
2022/05/29 10:48:00;;;;;;;1.95;0.52;;;;;;;;;;7393415;19;20077;-78
2022/05/29 10:51:03;;;;;;;1.85;0.75;;;;;;;;;;7392420;19;20036;-78
2022/05/29 10:54:01;;;;;;;2.20;0.80;;;;;;;;;;7392675;19;20014;-78
2022/05/29 10:56:37;;;;;;;1.80;0.55;;;;;;;;;;7392399;19;20023;-76
2022/05/29 10:59:21;;;;;;;1.23;0.50;;;;;;;;;;7398657;19;20017;-77
2022/05/29 11:05:33;;;;;;;1.48;0.65;;;;;;;;;;7390303;19;20015;-78
2022/05/29 11:08:13;;;;;;;;;;;;;;;;;;7393395;19;20090;-76
2022/05/29 11:11:01;;;;;;;2.65;0.85;;;;;;;;;;7391513;19;19911;-77
2022/05/29 11:13:47;;;;;;;0.95;0.60;;;;;;;;;;7389617;19;20626;-78
2022/05/29 11:16:28;;;;;;;1.73;0.38;;;;;;;;;;7388879;19;20014;-78
2022/05/29 11:19:28;;;;;;;0.93;0.57;;;;;;;;;;7390727;19;20011;-77
2022/05/29 11:22:00;;;;;;;1.27;0.60;;;;;;;;;;7388171;19;20032;-78
2022/05/29 11:25:06;;;;;;;1.52;0.40;;;;;;;;;;7388101;19;20015;-78
2022/05/29 11:27:59;;;;;;;1.92;0.60;;;;;;;;;;7384290;19;20208;-78
2022/05/29 11:30:45;;;;;;;1.10;0.45;;;;;;;;;;7386866;19;20074;-77
2022/05/29 11:33:47;;;;;;;1.10;0.60;;;;;;;;;;7385422;19;20505;-78
2022/05/29 11:36:29;;;;;;;2.75;0.70;;;;;;;;;;7387415;19;20015;-77
2022/05/29 11:39:13;;;;;;;1.00;0.63;;;;;;;;;;7391042;19;20035;-75
2022/05/29 11:41:50;;;;;;;0.40;0.30;;;;;;;;;;7391116;19;20018;-77
2022/05/29 11:44:25;;;;;;;3.30;0.52;;;;;;;;;;7391254;19;20007;-78
2022/05/29 11:51:07;;;;;;;0.90;0.68;;;;;;;;;;7392112;19;20496;-78
2022/05/29 11:53:36;;;;;;;0.95;0.43;;;;;;;;;;7396089;19;20006;-77
2022/05/29 11:56:08;;;;;;;2.42;0.40;;;;;;;;;;7394042;19;20014;-76
2022/05/29 11:58:45;;;;;;;0.60;0.32;;;;;;;;;;7395961;19;20002;-76
2022/05/29 12:01:16;;;;;;;0.35;0.35;;;;;;;;;;7390701;19;20014;-76
2022/05/29 12:03:49;;;;;;;1.55;0.50;;;;;;;;;;7392053;19;20019;-77
2022/05/29 12:06:22;;;;;;;1.77;0.73;;;;;;;;;;7389794;19;20002;-77
2022/05/29 12:09:16;;;;;;;1.02;0.40;;;;;;;;;;7388167;19;20006;-76
2022/05/29 12:11:46;;;;;;;1.00;0.30;;;;;;;;;;7391775;19;20139;-77
2022/05/29 12:14:22;;;;;;;0.20;0.20;;;;;;;;;;7390236;19;20388;-76
2022/05/29 12:16:51;;;;;;;0.38;0.30;;;;;;;;;;7384437;19;20074;-77
2022/05/29 12:19:25;;;;;;;0.75;0.30;;;;;;;;;;7389616;19;20448;-78
2022/05/29 12:21:57;;;;;;;1.30;0.32;;;;;;;;;;7389789;19;20126;-77
2022/05/29 12:24:28;;;;;;;0.98;0.38;;;;;;;;;;7391378;19;20519;-77
2022/05/29 12:26:59;;;;;;;0.38;0.38;;;;;;;;;;7381735;19;20527;-76
2022/05/29 12:29:35;;;;;;;1.83;0.50;;;;;;;;;;7389174;19;20015;-78
2022/05/29 12:32:11;;;;;;;0.60;0.20;;;;;;;;;;7386951;19;20015;-79
2022/05/29 12:34:54;;;;;;;0.52;0.25;;;;;;;;;;7390019;19;20327;-77
2022/05/29 12:37:47;;;;;;;0.28;0.15;;;;;;;;;;7390440;19;20007;-78
2022/05/29 12:40:21;;;;;;;0.50;0.40;;;;;;;;;;7391929;19;20010;-79
2022/05/29 12:43:15;;;;;;;0.85;0.40;;;;;;;;;;7394685;19;20006;-78
2022/05/29 12:45:53;;;;;;;0.45;0.30;;;;;;;;;;7400402;19;20035;-78
2022/05/29 12:48:34;;;;;;;0.60;0.45;;;;;;;;;;7389111;19;20013;-78
2022/05/29 12:51:26;;;;;;;0.20;0.20;;;;;;;;;;7389299;19;20302;-79
2022/05/29 12:54:16;;;;;;;0.82;0.40;;;;;;;;;;7389687;19;20108;-79
2022/05/29 12:56:48;;;;;;;0.52;0.30;;;;;;;;;;7389677;19;20014;-80
2022/05/29 12:59:51;;;;;;;0.63;0.32;;;;;;;;;;7389967;19;20018;-79
2022/05/29 13:02:36;;;;;;;1.15;0.40;;;;;;;;;;7388479;19;20094;-79
2022/05/29 13:05:47;;;;;;;0.25;0.20;;;;;;;;;;7382614;19;20018;-79
2022/05/29 13:08:49;;;;;;;0.68;0.30;;;;;;;;;;7387821;19;20366;-77
2022/05/29 13:11:19;;;;;;;0.68;0.35;;;;;;;;;;7387257;19;20035;-76
2022/05/29 13:13:47;;;;;;;0.50;0.40;;;;;;;;;;7383050;19;20011;-77
2022/05/29 13:16:21;;;;;;;1.10;0.60;;;;;;;;;;7384273;19;20011;-78
2022/05/29 13:19:19;;;;;;;0.82;0.60;;;;;;;;;;7384255;19;20014;-76
2022/05/29 13:21:59;;;;;;;1.95;0.40;;;;;;;;;;7384859;19;20018;-77
2022/05/29 13:24:40;;;;;;;0.98;0.38;;;;;;;;;;7385810;19;20037;-78
2022/05/29 13:27:08;;;;;;;0.75;0.43;;;;;;;;;;7396630;19;20018;-76
2022/05/29 13:29:40;;;;;;;0.38;0.32;;;;;;;;;;7397201;19;20761;-73
2022/05/29 13:32:18;;;;;;;0.88;0.47;;;;;;;;;;7394429;19;20536;-74
2022/05/29 13:34:44;;;;;;;0.45;0.30;;;;;;;;;;7394790;19;20017;-77
2022/05/29 13:37:39;;;;;;;1.23;0.55;;;;;;;;;;7390341;19;20552;-77
2022/05/29 13:40:29;;;;;;;2.45;0.70;;;;;;;;;;7394953;19;20066;-77
2022/05/29 13:43:15;;;;;;;1.60;0.70;;;;;;;;;;7390753;19;20502;-76
2022/05/29 13:45:43;;;;;;;2.33;0.75;;;;;;;;;;7392549;19;20537;-75
2022/05/29 13:48:24;;;;;;;15.52;8.45;;;;;;;;;;7395091;19;20052;-76
2022/05/29 13:51:11;;;;;;;3.38;1.42;;;;;;;;;;7394188;19;20102;-77
2022/05/29 13:54:02;;;;;;;3.00;0.70;;;;;;;;;;7391738;19;20510;-76
2022/05/29 13:56:51;;;;;;;1.00;0.90;;;;;;;;;;7392739;19;20006;-73
2022/05/29 14:05:46;;;;;;;1.35;0.88;;;;;;;;;;7389744;19;20356;-76
2022/05/29 14:08:17;;;;;;;0.88;0.73;;;;;;;;;;7385395;19;20444;-76
2022/05/29 14:11:00;;;;;;;1.17;0.70;;;;;;;;;;7394554;19;20003;-77
2022/05/29 14:13:36;;;;;;;3.35;0.93;;;;;;;;;;7392937;19;20086;-76
2022/05/29 14:16:29;;;;;;;1.10;0.82;;;;;;;;;;7391012;19;20010;-76
2022/05/29 14:19:26;;;;;;;0.70;0.70;;;;;;;;;;7392674;19;20464;-77
2022/05/29 14:22:47;;;;;;;1.05;0.50;;;;;;;;;;7390727;19;20018;-76
2022/05/29 14:25:26;;;;;;;1.20;0.80;;;;;;;;;;7388099;19;20014;-77
2022/05/29 14:28:25;;;;;;;1.95;0.68;;;;;;;;;;7386873;19;20010;-76
2022/05/29 14:31:22;;;;;;;2.50;1.00;;;;;;;;;;7384310;19;20039;-74
2022/05/29 14:34:33;;;;;;;0.70;0.50;;;;;;;;;;7384102;19;20015;-82
2022/05/29 14:37:06;;;;;;;1.23;0.40;;;;;;;;;;7396444;19;20017;-82
2022/05/29 14:39:40;;;;;;;0.90;0.50;;;;;;;;;;7396596;19;20066;-80
2022/05/29 14:42:28;;;;;;;1.48;0.70;;;;;;;;;;7399511;19;20043;-80
2022/05/29 14:45:04;;;;;;;0.95;0.70;;;;;;;;;;7402083;19;20006;-82
2022/05/29 14:47:44;;;;;;;1.35;0.77;;;;;;;;;;7397848;19;20119;-84
2022/05/29 14:50:33;;;;;;;1.40;0.60;;;;;;;;;;7397999;19;20006;-80
2022/05/29 14:53:25;;;;;;;2.72;0.80;;;;;;;;;;7394519;19;20013;-79
2022/05/29 14:56:00;;;;;;;1.33;0.60;;;;;;;;;;7392283;19;19999;-79
2022/05/29 14:58:37;;;;;;;;;;;;;;;;;;7390436;19;20002;-79
2022/05/29 15:01:06;;;;;;;;;;;;;;;;;;7396237;19;19982;-79
2022/05/29 15:03:38;;;;;;;6.43;2.13;;;;;;;;;;7399309;19;20015;-79
2022/05/29 15:06:05;;;;;;;2.05;1.30;;;;;;;;;;7399047;19;20493;-79
2022/05/29 15:11:22;;;;;;;2.42;0.93;;;;;;;;;;7400928;19;20500;-79
2022/05/29 15:14:02;;;;;;;1.83;0.65;;;;;;;;;;7397235;19;20014;-78
2022/05/29 15:16:31;;;;;;;1.25;0.80;;;;;;;;;;7396565;19;20721;-78
2022/05/29 15:19:15;;;;;;;2.55;1.48;;;;;;;;;;7400588;19;20010;-79
2022/05/29 15:24:36;;;;;;;;;;;;;;;;;;7397077;19;20017;-79
2022/05/29 15:27:17;;;;;;;0.75;0.50;;;;;;;;;;7395166;19;20323;-78
2022/05/29 15:29:46;;;;;;;1.77;0.60;;;;;;;;;;7401810;19;20378;-78
2022/05/29 15:32:27;;;;;;;0.70;0.70;;;;;;;;;;7394767;19;20002;-79
2022/05/29 15:35:04;;;;;;;1.25;0.60;;;;;;;;;;7395460;19;20039;-77
2022/05/29 15:37:46;;;;;;;1.50;0.70;;;;;;;;;;7396354;19;20010;-79
2022/05/29 15:40:33;;;;;;;1.25;0.55;;;;;;;;;;7396548;19;20022;-78
2022/05/29 15:43:22;;;;;;;2.85;0.80;;;;;;;;;;7392164;19;20122;-78
2022/05/29 15:46:11;;;;;;;1.65;0.73;;;;;;;;;;7398779;19;20023;-78
2022/05/29 15:49:15;;;;;;;2.80;0.90;;;;;;;;;;7396059;19;20011;-79
2022/05/29 15:52:05;;;;;;;4.35;0.68;;;;;;;;;;7391815;19;20026;-79
2022/05/29 15:54:53;;;;;;;1.80;0.65;;;;;;;;;;7390642;19;20007;-77
2022/05/29 15:57:44;;;;;;;0.80;0.60;;;;;;;;;;7393969;19;20010;-77
2022/05/29 16:00:17;;;;;;;1.00;0.57;;;;;;;;;;7398250;19;20011;-76
2022/05/29 16:02:45;;;;;;;1.80;0.80;;;;;;;;;;7392558;19;20010;-77
2022/05/29 16:05:18;;;;;;;1.15;0.65;;;;;;;;;;7392200;19;20056;-77
2022/05/29 16:07:44;;;;;;;6.65;0.57;;;;;;;;;;7397426;19;20020;-77